sensor_id;sensor_type;location;lat;lon;timestamp;P1;durP1;ratioP1;P2;durP2;ratioP2
5127;SDS011;2582;48.770;9.190;2023-04-09T00:01:41;13.70;;;12.30;;
5127;SDS011;2582;48.770;9.190;2023-04-09T00:04:06;13.50;;;12.10;;
5127;SDS011;2582;48.770;9.190;2023-04-09T00:06:32;12.27;;;11.10;;
5127;SDS011;2582;48.770;9.190;2023-04-09T00:08:57;13.17;;;11.87;;
5127;SDS011;2582;48.770;9.190;2023-04-09T00:11:23;13.50;;;11.00;;
5127;SDS011;2582;48.770;9.190;2023-04-09T00:13:48;13.30;;;12.00;;
5127;SDS011;2582;48.770;9.190;2023-04-09T00:16:14;14.10;;;12.80;;
5127;SDS011;2582;48.770;9.190;2023-04-09T00:18:40;13.27;;;12.07;;
5127;SDS011;2582;48.770;9.190;2023-04-09T00:21:05;14.17;;;12.77;;
5127;SDS011;2582;48.770;9.190;2023-04-09T00:23:32;12.50;;;11.30;;
5127;SDS011;2582;48.770;9.190;2023-04-09T00:25:59;13.87;;;12.57;;
5127;SDS011;2582;48.770;9.190;2023-04-09T00:28:25;11.87;;;10.77;;
5127;SDS011;2582;48.770;9.190;2023-04-09T00:30:51;13.60;;;12.30;;
5127;SDS011;2582;48.770;9.190;2023-04-09T00:33:16;13.40;;;12.10;;
5127;SDS011;2582;48.770;9.190;2023-04-09T00:35:42;11.70;;;10.60;;
5127;SDS011;2582;48.770;9.190;2023-04-09T00:38:08;11.77;;;10.60;;
5127;SDS011;2582;48.770;9.190;2023-04-09T00:40:33;12.70;;;11.50;;
5127;SDS011;2582;48.770;9.190;2023-04-09T00:42:59;11.67;;;10.47;;
5127;SDS011;2582;48.770;9.190;2023-04-09T00:45:26;13.13;;;11.90;;
5127;SDS011;2582;48.770;9.190;2023-04-09T00:47:51;12.33;;;11.30;;
5127;SDS011;2582;48.770;9.190;2023-04-09T00:50:17;14.07;;;12.87;;
5127;SDS011;2582;48.770;9.190;2023-04-09T00:52:43;12.50;;;11.30;;
5127;SDS011;2582;48.770;9.190;2023-04-09T00:55:09;13.23;;;11.90;;
5127;SDS011;2582;48.770;9.190;2023-04-09T00:57:35;13.33;;;12.13;;
5127;SDS011;2582;48.770;9.190;2023-04-09T01:00:01;13.63;;;12.23;;
5127;SDS011;2582;48.770;9.190;2023-04-09T01:02:28;12.40;;;11.30;;
5127;SDS011;2582;48.770;9.190;2023-04-09T01:04:54;13.03;;;11.73;;
5127;SDS011;2582;48.770;9.190;2023-04-09T01:15:30;11.97;;;10.90;;
5127;SDS011;2582;48.770;9.190;2023-04-09T01:18:04;13.93;;;12.73;;
5127;SDS011;2582;48.770;9.190;2023-04-09T01:20:47;14.73;;;13.23;;
5127;SDS011;2582;48.770;9.190;2023-04-09T01:26:00;13.10;;;11.80;;
5127;SDS011;2582;48.770;9.190;2023-04-09T01:28:45;14.30;;;12.87;;
5127;SDS011;2582;48.770;9.190;2023-04-09T01:31:14;13.03;;;11.80;;
5127;SDS011;2582;48.770;9.190;2023-04-09T01:33:42;14.17;;;12.70;;
5127;SDS011;2582;48.770;9.190;2023-04-09T01:36:08;13.53;;;12.33;;
5127;SDS011;2582;48.770;9.190;2023-04-09T01:38:36;11.63;;;10.53;;
5127;SDS011;2582;48.770;9.190;2023-04-09T01:41:07;11.80;;;10.70;;
5127;SDS011;2582;48.770;9.190;2023-04-09T01:43:38;12.17;;;11.07;;
5127;SDS011;2582;48.770;9.190;2023-04-09T01:46:05;12.80;;;11.60;;
5127;SDS011;2582;48.770;9.190;2023-04-09T01:48:32;13.00;;;11.77;;
5127;SDS011;2582;48.770;9.190;2023-04-09T01:50:58;13.23;;;11.93;;
5127;SDS011;2582;48.770;9.190;2023-04-09T01:53:24;13.87;;;12.40;;
5127;SDS011;2582;48.770;9.190;2023-04-09T01:55:52;15.30;;;13.70;;
5127;SDS011;2582;48.770;9.190;2023-04-09T01:58:20;13.43;;;11.77;;
5127;SDS011;2582;48.770;9.190;2023-04-09T02:00:46;12.40;;;11.10;;
5127;SDS011;2582;48.770;9.190;2023-04-09T02:03:17;12.93;;;11.73;;
5127;SDS011;2582;48.770;9.190;2023-04-09T02:05:45;12.90;;;11.70;;
5127;SDS011;2582;48.770;9.190;2023-04-09T02:08:26;15.27;;;13.77;;
5127;SDS011;2582;48.770;9.190;2023-04-09T02:10:55;14.40;;;13.00;;
5127;SDS011;2582;48.770;9.190;2023-04-09T02:13:23;13.27;;;11.93;;
5127;SDS011;2582;48.770;9.190;2023-04-09T02:15:51;13.53;;;12.23;;
5127;SDS011;2582;48.770;9.190;2023-04-09T02:18:22;13.30;;;12.10;;
5127;SDS011;2582;48.770;9.190;2023-04-09T02:20:48;13.87;;;12.50;;
5127;SDS011;2582;48.770;9.190;2023-04-09T02:23:15;15.27;;;13.83;;
5127;SDS011;2582;48.770;9.190;2023-04-09T02:25:41;15.60;;;14.07;;
5127;SDS011;2582;48.770;9.190;2023-04-09T02:28:07;12.93;;;11.63;;
5127;SDS011;2582;48.770;9.190;2023-04-09T02:30:33;13.87;;;12.50;;
5127;SDS011;2582;48.770;9.190;2023-04-09T02:32:59;14.93;;;13.50;;
5127;SDS011;2582;48.770;9.190;2023-04-09T02:35:24;14.77;;;13.33;;
5127;SDS011;2582;48.770;9.190;2023-04-09T02:37:50;13.23;;;12.03;;
5127;SDS011;2582;48.770;9.190;2023-04-09T02:40:15;12.70;;;11.40;;
5127;SDS011;2582;48.770;9.190;2023-04-09T02:42:41;15.30;;;13.80;;
5127;SDS011;2582;48.770;9.190;2023-04-09T02:45:07;13.90;;;12.50;;
5127;SDS011;2582;48.770;9.190;2023-04-09T02:47:33;12.90;;;11.60;;
5127;SDS011;2582;48.770;9.190;2023-04-09T02:49:58;12.40;;;11.20;;
5127;SDS011;2582;48.770;9.190;2023-04-09T02:52:24;12.97;;;11.77;;
5127;SDS011;2582;48.770;9.190;2023-04-09T02:54:50;13.20;;;11.90;;
5127;SDS011;2582;48.770;9.190;2023-04-09T02:57:16;13.33;;;12.07;;
5127;SDS011;2582;48.770;9.190;2023-04-09T02:59:42;12.73;;;11.57;;
5127;SDS011;2582;48.770;9.190;2023-04-09T03:02:08;14.40;;;12.33;;
5127;SDS011;2582;48.770;9.190;2023-04-09T03:04:34;13.93;;;12.43;;
5127;SDS011;2582;48.770;9.190;2023-04-09T03:07:00;12.60;;;11.30;;
5127;SDS011;2582;48.770;9.190;2023-04-09T03:09:25;14.77;;;13.03;;
5127;SDS011;2582;48.770;9.190;2023-04-09T03:11:51;13.23;;;11.93;;
5127;SDS011;2582;48.770;9.190;2023-04-09T03:14:17;15.67;;;14.13;;
5127;SDS011;2582;48.770;9.190;2023-04-09T03:16:42;12.93;;;11.63;;
5127;SDS011;2582;48.770;9.190;2023-04-09T03:19:08;13.57;;;12.37;;
5127;SDS011;2582;48.770;9.190;2023-04-09T03:21:33;15.50;;;13.90;;
5127;SDS011;2582;48.770;9.190;2023-04-09T03:23:59;14.33;;;12.83;;
5127;SDS011;2582;48.770;9.190;2023-04-09T03:26:26;15.00;;;13.57;;
5127;SDS011;2582;48.770;9.190;2023-04-09T03:28:51;15.00;;;13.60;;
5127;SDS011;2582;48.770;9.190;2023-04-09T03:31:17;13.60;;;12.10;;
5127;SDS011;2582;48.770;9.190;2023-04-09T03:33:43;14.47;;;13.07;;
5127;SDS011;2582;48.770;9.190;2023-04-09T03:36:08;14.53;;;12.63;;
5127;SDS011;2582;48.770;9.190;2023-04-09T03:38:34;14.33;;;12.93;;
5127;SDS011;2582;48.770;9.190;2023-04-09T03:40:59;15.57;;;14.07;;
5127;SDS011;2582;48.770;9.190;2023-04-09T03:43:25;15.40;;;13.97;;
5127;SDS011;2582;48.770;9.190;2023-04-09T03:45:51;15.50;;;13.90;;
5127;SDS011;2582;48.770;9.190;2023-04-09T03:48:17;15.57;;;14.07;;
5127;SDS011;2582;48.770;9.190;2023-04-09T03:50:42;15.13;;;13.63;;
5127;SDS011;2582;48.770;9.190;2023-04-09T03:53:08;13.27;;;12.00;;
5127;SDS011;2582;48.770;9.190;2023-04-09T03:55:33;13.57;;;12.27;;
5127;SDS011;2582;48.770;9.190;2023-04-09T03:57:59;15.70;;;14.20;;
5127;SDS011;2582;48.770;9.190;2023-04-09T04:00:25;15.00;;;13.50;;
5127;SDS011;2582;48.770;9.190;2023-04-09T04:02:50;14.43;;;13.03;;
5127;SDS011;2582;48.770;9.190;2023-04-09T04:05:16;15.43;;;14.00;;
5127;SDS011;2582;48.770;9.190;2023-04-09T04:07:42;15.23;;;13.70;;
5127;SDS011;2582;48.770;9.190;2023-04-09T04:10:08;15.17;;;13.77;;
5127;SDS011;2582;48.770;9.190;2023-04-09T04:12:34;13.90;;;12.50;;
5127;SDS011;2582;48.770;9.190;2023-04-09T04:15:00;15.07;;;13.67;;
5127;SDS011;2582;48.770;9.190;2023-04-09T04:17:26;16.20;;;14.50;;
5127;SDS011;2582;48.770;9.190;2023-04-09T04:19:51;16.13;;;14.53;;
5127;SDS011;2582;48.770;9.190;2023-04-09T04:22:17;14.97;;;13.57;;
5127;SDS011;2582;48.770;9.190;2023-04-09T04:24:42;14.33;;;13.00;;
5127;SDS011;2582;48.770;9.190;2023-04-09T04:27:08;15.10;;;13.50;;
5127;SDS011;2582;48.770;9.190;2023-04-09T04:29:33;14.87;;;13.40;;
5127;SDS011;2582;48.770;9.190;2023-04-09T04:31:59;15.60;;;13.17;;
5127;SDS011;2582;48.770;9.190;2023-04-09T04:34:25;15.37;;;13.90;;
5127;SDS011;2582;48.770;9.190;2023-04-09T04:36:50;15.57;;;14.13;;
5127;SDS011;2582;48.770;9.190;2023-04-09T04:39:16;14.30;;;12.80;;
5127;SDS011;2582;48.770;9.190;2023-04-09T04:41:41;20.07;;;17.30;;
5127;SDS011;2582;48.770;9.190;2023-04-09T04:44:07;15.30;;;13.73;;
5127;SDS011;2582;48.770;9.190;2023-04-09T04:46:32;14.30;;;12.90;;
5127;SDS011;2582;48.770;9.190;2023-04-09T04:48:58;15.83;;;14.30;;
5127;SDS011;2582;48.770;9.190;2023-04-09T04:51:24;15.93;;;14.33;;
5127;SDS011;2582;48.770;9.190;2023-04-09T04:53:51;16.10;;;13.93;;
5127;SDS011;2582;48.770;9.190;2023-04-09T04:56:17;16.80;;;15.00;;
5127;SDS011;2582;48.770;9.190;2023-04-09T04:58:42;15.17;;;13.57;;
5127;SDS011;2582;48.770;9.190;2023-04-09T05:01:08;14.90;;;13.30;;
5127;SDS011;2582;48.770;9.190;2023-04-09T05:03:34;15.43;;;13.93;;
5127;SDS011;2582;48.770;9.190;2023-04-09T05:05:59;13.93;;;12.70;;
5127;SDS011;2582;48.770;9.190;2023-04-09T05:08:25;17.07;;;14.90;;
5127;SDS011;2582;48.770;9.190;2023-04-09T05:10:51;14.77;;;13.30;;
5127;SDS011;2582;48.770;9.190;2023-04-09T05:13:20;15.03;;;13.43;;
5127;SDS011;2582;48.770;9.190;2023-04-09T05:15:45;17.47;;;15.67;;
5127;SDS011;2582;48.770;9.190;2023-04-09T05:18:11;19.67;;;17.77;;
5127;SDS011;2582;48.770;9.190;2023-04-09T05:20:37;19.67;;;17.67;;
5127;SDS011;2582;48.770;9.190;2023-04-09T05:23:02;17.93;;;16.03;;
5127;SDS011;2582;48.770;9.190;2023-04-09T05:25:28;16.77;;;15.13;;
5127;SDS011;2582;48.770;9.190;2023-04-09T05:27:53;18.80;;;16.80;;
5127;SDS011;2582;48.770;9.190;2023-04-09T05:30:20;15.77;;;13.97;;
5127;SDS011;2582;48.770;9.190;2023-04-09T05:32:45;15.67;;;14.07;;
5127;SDS011;2582;48.770;9.190;2023-04-09T05:35:11;16.03;;;14.47;;
5127;SDS011;2582;48.770;9.190;2023-04-09T05:37:36;16.57;;;14.87;;
5127;SDS011;2582;48.770;9.190;2023-04-09T05:40:02;15.80;;;14.30;;
5127;SDS011;2582;48.770;9.190;2023-04-09T05:42:28;16.93;;;15.20;;
5127;SDS011;2582;48.770;9.190;2023-04-09T05:44:54;19.17;;;17.30;;
5127;SDS011;2582;48.770;9.190;2023-04-09T05:47:19;17.43;;;15.80;;
5127;SDS011;2582;48.770;9.190;2023-04-09T05:49:45;17.43;;;15.53;;
5127;SDS011;2582;48.770;9.190;2023-04-09T05:52:11;16.47;;;14.83;;
5127;SDS011;2582;48.770;9.190;2023-04-09T05:54:36;19.07;;;17.17;;
5127;SDS011;2582;48.770;9.190;2023-04-09T05:57:02;17.00;;;15.33;;
5127;SDS011;2582;48.770;9.190;2023-04-09T05:59:27;17.30;;;15.63;;
5127;SDS011;2582;48.770;9.190;2023-04-09T06:01:53;19.80;;;17.80;;
5127;SDS011;2582;48.770;9.190;2023-04-09T06:04:19;17.60;;;15.90;;
5127;SDS011;2582;48.770;9.190;2023-04-09T06:06:45;18.57;;;16.73;;
5127;SDS011;2582;48.770;9.190;2023-04-09T06:09:11;16.50;;;15.10;;
5127;SDS011;2582;48.770;9.190;2023-04-09T06:11:36;20.20;;;18.43;;
5127;SDS011;2582;48.770;9.190;2023-04-09T06:14:02;18.37;;;16.53;;
5127;SDS011;2582;48.770;9.190;2023-04-09T06:16:28;17.47;;;15.77;;
5127;SDS011;2582;48.770;9.190;2023-04-09T06:18:53;17.40;;;15.67;;
5127;SDS011;2582;48.770;9.190;2023-04-09T06:21:20;18.37;;;16.47;;
5127;SDS011;2582;48.770;9.190;2023-04-09T06:23:46;18.00;;;16.30;;
5127;SDS011;2582;48.770;9.190;2023-04-09T06:26:12;16.67;;;15.07;;
5127;SDS011;2582;48.770;9.190;2023-04-09T06:28:37;18.23;;;16.20;;
5127;SDS011;2582;48.770;9.190;2023-04-09T06:31:03;18.00;;;16.40;;
5127;SDS011;2582;48.770;9.190;2023-04-09T06:33:28;18.20;;;16.50;;
5127;SDS011;2582;48.770;9.190;2023-04-09T06:35:54;18.10;;;16.50;;
5127;SDS011;2582;48.770;9.190;2023-04-09T06:38:20;17.70;;;15.33;;
5127;SDS011;2582;48.770;9.190;2023-04-09T06:40:45;17.37;;;15.70;;
5127;SDS011;2582;48.770;9.190;2023-04-09T06:43:11;17.33;;;15.73;;
5127;SDS011;2582;48.770;9.190;2023-04-09T06:45:37;16.90;;;15.30;;
5127;SDS011;2582;48.770;9.190;2023-04-09T06:48:02;17.37;;;15.77;;
5127;SDS011;2582;48.770;9.190;2023-04-09T06:50:28;18.33;;;16.57;;
5127;SDS011;2582;48.770;9.190;2023-04-09T06:52:54;16.17;;;14.57;;
5127;SDS011;2582;48.770;9.190;2023-04-09T06:55:21;15.70;;;14.20;;
5127;SDS011;2582;48.770;9.190;2023-04-09T06:57:46;15.27;;;13.77;;
5127;SDS011;2582;48.770;9.190;2023-04-09T07:00:12;15.07;;;13.60;;
5127;SDS011;2582;48.770;9.190;2023-04-09T07:02:38;14.57;;;13.17;;
5127;SDS011;2582;48.770;9.190;2023-04-09T07:05:03;14.23;;;12.73;;
5127;SDS011;2582;48.770;9.190;2023-04-09T07:07:29;15.20;;;13.73;;
5127;SDS011;2582;48.770;9.190;2023-04-09T07:09:55;13.80;;;12.50;;
5127;SDS011;2582;48.770;9.190;2023-04-09T07:12:27;14.27;;;12.97;;
5127;SDS011;2582;48.770;9.190;2023-04-09T07:14:57;15.03;;;13.53;;
5127;SDS011;2582;48.770;9.190;2023-04-09T07:17:23;14.80;;;13.27;;
5127;SDS011;2582;48.770;9.190;2023-04-09T07:19:49;14.47;;;13.10;;
5127;SDS011;2582;48.770;9.190;2023-04-09T07:22:16;14.07;;;12.70;;
5127;SDS011;2582;48.770;9.190;2023-04-09T07:24:42;12.20;;;11.00;;
5127;SDS011;2582;48.770;9.190;2023-04-09T07:27:07;12.13;;;10.93;;
5127;SDS011;2582;48.770;9.190;2023-04-09T07:29:33;13.40;;;12.10;;
5127;SDS011;2582;48.770;9.190;2023-04-09T07:31:59;11.80;;;10.70;;
5127;SDS011;2582;48.770;9.190;2023-04-09T07:34:26;11.13;;;10.13;;
5127;SDS011;2582;48.770;9.190;2023-04-09T07:36:52;10.90;;;9.80;;
5127;SDS011;2582;48.770;9.190;2023-04-09T07:39:18;11.87;;;10.67;;
5127;SDS011;2582;48.770;9.190;2023-04-09T07:41:45;11.10;;;10.00;;
5127;SDS011;2582;48.770;9.190;2023-04-09T07:44:11;10.00;;;9.17;;
5127;SDS011;2582;48.770;9.190;2023-04-09T07:46:37;9.37;;;8.47;;
5127;SDS011;2582;48.770;9.190;2023-04-09T07:49:03;8.90;;;8.00;;
5127;SDS011;2582;48.770;9.190;2023-04-09T07:51:29;8.63;;;7.83;;
5127;SDS011;2582;48.770;9.190;2023-04-09T07:53:55;10.23;;;9.23;;
5127;SDS011;2582;48.770;9.190;2023-04-09T07:56:21;10.10;;;9.10;;
5127;SDS011;2582;48.770;9.190;2023-04-09T07:58:46;9.13;;;8.33;;
5127;SDS011;2582;48.770;9.190;2023-04-09T08:01:13;11.40;;;9.20;;
5127;SDS011;2582;48.770;9.190;2023-04-09T08:03:39;11.03;;;10.13;;
5127;SDS011;2582;48.770;9.190;2023-04-09T08:06:05;11.30;;;10.20;;
5127;SDS011;2582;48.770;9.190;2023-04-09T08:08:31;11.70;;;10.53;;
5127;SDS011;2582;48.770;9.190;2023-04-09T08:10:56;10.93;;;9.93;;
5127;SDS011;2582;48.770;9.190;2023-04-09T08:13:22;11.73;;;10.63;;
5127;SDS011;2582;48.770;9.190;2023-04-09T08:15:49;11.20;;;10.10;;
5127;SDS011;2582;48.770;9.190;2023-04-09T08:18:15;11.70;;;10.50;;
5127;SDS011;2582;48.770;9.190;2023-04-09T08:20:40;11.50;;;10.40;;
5127;SDS011;2582;48.770;9.190;2023-04-09T08:23:09;9.50;;;8.50;;
5127;SDS011;2582;48.770;9.190;2023-04-09T08:25:35;10.63;;;9.63;;
5127;SDS011;2582;48.770;9.190;2023-04-09T08:28:01;9.67;;;8.80;;
5127;SDS011;2582;48.770;9.190;2023-04-09T08:30:26;10.67;;;9.57;;
5127;SDS011;2582;48.770;9.190;2023-04-09T08:32:52;9.27;;;8.37;;
5127;SDS011;2582;48.770;9.190;2023-04-09T08:35:18;8.70;;;7.90;;
5127;SDS011;2582;48.770;9.190;2023-04-09T08:37:44;9.23;;;8.33;;
5127;SDS011;2582;48.770;9.190;2023-04-09T08:40:09;10.60;;;9.60;;
5127;SDS011;2582;48.770;9.190;2023-04-09T08:42:35;10.30;;;9.30;;
5127;SDS011;2582;48.770;9.190;2023-04-09T08:45:07;11.20;;;10.17;;
5127;SDS011;2582;48.770;9.190;2023-04-09T08:47:33;11.20;;;10.10;;
5127;SDS011;2582;48.770;9.190;2023-04-09T08:50:00;10.60;;;9.60;;
5127;SDS011;2582;48.770;9.190;2023-04-09T08:52:30;11.63;;;10.47;;
5127;SDS011;2582;48.770;9.190;2023-04-09T08:54:57;12.07;;;10.97;;
5127;SDS011;2582;48.770;9.190;2023-04-09T08:57:23;9.70;;;8.80;;
5127;SDS011;2582;48.770;9.190;2023-04-09T08:59:48;11.97;;;10.77;;
5127;SDS011;2582;48.770;9.190;2023-04-09T09:02:14;10.43;;;9.43;;
5127;SDS011;2582;48.770;9.190;2023-04-09T09:04:45;9.93;;;9.03;;
5127;SDS011;2582;48.770;9.190;2023-04-09T09:07:13;12.10;;;10.80;;
5127;SDS011;2582;48.770;9.190;2023-04-09T09:12:38;11.33;;;10.17;;
5127;SDS011;2582;48.770;9.190;2023-04-09T09:15:28;10.97;;;9.90;;
5127;SDS011;2582;48.770;9.190;2023-04-09T09:17:53;11.47;;;10.30;;
5127;SDS011;2582;48.770;9.190;2023-04-09T09:20:21;11.37;;;10.37;;
5127;SDS011;2582;48.770;9.190;2023-04-09T09:22:51;11.00;;;10.00;;
5127;SDS011;2582;48.770;9.190;2023-04-09T09:25:17;11.27;;;10.20;;
5127;SDS011;2582;48.770;9.190;2023-04-09T09:27:47;11.17;;;10.00;;
5127;SDS011;2582;48.770;9.190;2023-04-09T09:30:23;11.03;;;10.03;;
5127;SDS011;2582;48.770;9.190;2023-04-09T09:32:50;12.60;;;11.50;;
5127;SDS011;2582;48.770;9.190;2023-04-09T09:35:17;11.23;;;10.13;;
5127;SDS011;2582;48.770;9.190;2023-04-09T09:37:43;10.63;;;9.63;;
5127;SDS011;2582;48.770;9.190;2023-04-09T09:40:09;10.40;;;9.40;;
5127;SDS011;2582;48.770;9.190;2023-04-09T09:42:35;9.63;;;8.73;;
5127;SDS011;2582;48.770;9.190;2023-04-09T09:45:02;11.33;;;10.30;;
5127;SDS011;2582;48.770;9.190;2023-04-09T09:47:41;11.23;;;10.13;;
5127;SDS011;2582;48.770;9.190;2023-04-09T09:50:07;11.17;;;10.07;;
5127;SDS011;2582;48.770;9.190;2023-04-09T09:52:33;11.23;;;10.23;;
5127;SDS011;2582;48.770;9.190;2023-04-09T09:55:00;11.30;;;10.30;;
5127;SDS011;2582;48.770;9.190;2023-04-09T09:57:30;9.47;;;8.67;;
5127;SDS011;2582;48.770;9.190;2023-04-09T10:00:00;8.57;;;7.77;;
5127;SDS011;2582;48.770;9.190;2023-04-09T10:02:29;8.90;;;8.10;;
5127;SDS011;2582;48.770;9.190;2023-04-09T10:05:01;9.53;;;8.63;;
5127;SDS011;2582;48.770;9.190;2023-04-09T10:07:28;9.30;;;8.50;;
5127;SDS011;2582;48.770;9.190;2023-04-09T10:09:55;7.60;;;6.87;;
5127;SDS011;2582;48.770;9.190;2023-04-09T10:12:21;8.20;;;7.40;;
5127;SDS011;2582;48.770;9.190;2023-04-09T10:14:49;6.93;;;6.33;;
5127;SDS011;2582;48.770;9.190;2023-04-09T10:17:16;9.40;;;8.40;;
5127;SDS011;2582;48.770;9.190;2023-04-09T10:19:45;8.30;;;7.60;;
5127;SDS011;2582;48.770;9.190;2023-04-09T10:22:17;7.87;;;7.17;;
5127;SDS011;2582;48.770;9.190;2023-04-09T10:24:45;6.63;;;6.03;;
5127;SDS011;2582;48.770;9.190;2023-04-09T10:27:15;6.47;;;5.87;;
5127;SDS011;2582;48.770;9.190;2023-04-09T10:29:42;6.13;;;5.63;;
5127;SDS011;2582;48.770;9.190;2023-04-09T10:32:09;6.10;;;5.60;;
5127;SDS011;2582;48.770;9.190;2023-04-09T10:34:39;5.20;;;4.80;;
5127;SDS011;2582;48.770;9.190;2023-04-09T10:37:13;6.27;;;5.67;;
5127;SDS011;2582;48.770;9.190;2023-04-09T10:39:44;8.13;;;7.43;;
5127;SDS011;2582;48.770;9.190;2023-04-09T10:47:30;7.90;;;7.20;;
5127;SDS011;2582;48.770;9.190;2023-04-09T10:49:57;6.07;;;5.57;;
5127;SDS011;2582;48.770;9.190;2023-04-09T10:52:37;6.57;;;6.00;;
5127;SDS011;2582;48.770;9.190;2023-04-09T10:55:05;7.10;;;6.40;;
5127;SDS011;2582;48.770;9.190;2023-04-09T10:57:31;6.23;;;5.73;;
5127;SDS011;2582;48.770;9.190;2023-04-09T10:59:56;5.90;;;5.40;;
5127;SDS011;2582;48.770;9.190;2023-04-09T11:07:17;6.13;;;5.63;;
5127;SDS011;2582;48.770;9.190;2023-04-09T11:09:46;7.50;;;6.80;;
5127;SDS011;2582;48.770;9.190;2023-04-09T11:12:11;5.40;;;4.90;;
5127;SDS011;2582;48.770;9.190;2023-04-09T11:14:37;6.87;;;6.27;;
5127;SDS011;2582;48.770;9.190;2023-04-09T11:17:03;6.03;;;5.53;;
5127;SDS011;2582;48.770;9.190;2023-04-09T11:19:28;7.40;;;6.80;;
5127;SDS011;2582;48.770;9.190;2023-04-09T11:21:54;8.20;;;5.73;;
5127;SDS011;2582;48.770;9.190;2023-04-09T11:24:20;7.20;;;6.60;;
5127;SDS011;2582;48.770;9.190;2023-04-09T11:26:47;7.40;;;6.80;;
5127;SDS011;2582;48.770;9.190;2023-04-09T11:29:13;7.47;;;6.87;;
5127;SDS011;2582;48.770;9.190;2023-04-09T11:31:41;7.20;;;6.60;;
5127;SDS011;2582;48.770;9.190;2023-04-09T11:34:08;7.77;;;7.07;;
5127;SDS011;2582;48.770;9.190;2023-04-09T11:36:36;6.57;;;5.90;;
5127;SDS011;2582;48.770;9.190;2023-04-09T11:39:02;6.77;;;6.17;;
5127;SDS011;2582;48.770;9.190;2023-04-09T11:41:34;7.33;;;6.63;;
5127;SDS011;2582;48.770;9.190;2023-04-09T11:44:02;7.40;;;6.70;;
5127;SDS011;2582;48.770;9.190;2023-04-09T11:46:29;6.77;;;6.20;;
5127;SDS011;2582;48.770;9.190;2023-04-09T11:49:02;6.30;;;5.80;;
5127;SDS011;2582;48.770;9.190;2023-04-09T11:51:28;6.77;;;6.27;;
5127;SDS011;2582;48.770;9.190;2023-04-09T11:53:55;6.43;;;5.93;;
5127;SDS011;2582;48.770;9.190;2023-04-09T11:56:27;5.70;;;5.30;;
5127;SDS011;2582;48.770;9.190;2023-04-09T11:58:55;6.17;;;5.67;;
5127;SDS011;2582;48.770;9.190;2023-04-09T12:01:21;6.90;;;6.30;;
5127;SDS011;2582;48.770;9.190;2023-04-09T12:03:53;5.43;;;4.93;;
5127;SDS011;2582;48.770;9.190;2023-04-09T12:06:19;7.43;;;6.80;;
5127;SDS011;2582;48.770;9.190;2023-04-09T12:08:55;5.60;;;5.20;;
5127;SDS011;2582;48.770;9.190;2023-04-09T12:11:26;6.10;;;5.60;;
5127;SDS011;2582;48.770;9.190;2023-04-09T12:14:03;6.67;;;6.17;;
5127;SDS011;2582;48.770;9.190;2023-04-09T12:16:33;5.20;;;4.80;;
5127;SDS011;2582;48.770;9.190;2023-04-09T12:19:05;6.60;;;5.90;;
5127;SDS011;2582;48.770;9.190;2023-04-09T12:24:10;6.17;;;5.67;;
5127;SDS011;2582;48.770;9.190;2023-04-09T12:26:36;6.13;;;5.63;;
5127;SDS011;2582;48.770;9.190;2023-04-09T12:29:01;6.20;;;5.70;;
5127;SDS011;2582;48.770;9.190;2023-04-09T12:31:27;6.23;;;5.73;;
5127;SDS011;2582;48.770;9.190;2023-04-09T12:33:53;5.70;;;5.20;;
5127;SDS011;2582;48.770;9.190;2023-04-09T12:36:18;5.93;;;5.43;;
5127;SDS011;2582;48.770;9.190;2023-04-09T12:38:44;6.70;;;5.80;;
5127;SDS011;2582;48.770;9.190;2023-04-09T12:41:10;7.17;;;6.50;;
5127;SDS011;2582;48.770;9.190;2023-04-09T12:43:37;7.17;;;6.57;;
5127;SDS011;2582;48.770;9.190;2023-04-09T12:46:03;7.40;;;6.80;;
5127;SDS011;2582;48.770;9.190;2023-04-09T12:48:28;6.00;;;5.50;;
5127;SDS011;2582;48.770;9.190;2023-04-09T12:50:54;7.30;;;6.70;;
5127;SDS011;2582;48.770;9.190;2023-04-09T12:53:20;6.17;;;5.47;;
5127;SDS011;2582;48.770;9.190;2023-04-09T12:55:45;6.20;;;5.70;;
5127;SDS011;2582;48.770;9.190;2023-04-09T12:58:11;6.27;;;5.77;;
5127;SDS011;2582;48.770;9.190;2023-04-09T13:00:37;4.80;;;4.40;;
5127;SDS011;2582;48.770;9.190;2023-04-09T13:03:02;5.80;;;5.30;;
5127;SDS011;2582;48.770;9.190;2023-04-09T13:05:28;4.53;;;4.23;;
5127;SDS011;2582;48.770;9.190;2023-04-09T13:07:56;5.70;;;5.20;;
5127;SDS011;2582;48.770;9.190;2023-04-09T13:10:22;4.60;;;4.30;;
5127;SDS011;2582;48.770;9.190;2023-04-09T13:12:49;4.93;;;4.53;;
5127;SDS011;2582;48.770;9.190;2023-04-09T13:15:15;4.83;;;4.43;;
5127;SDS011;2582;48.770;9.190;2023-04-09T13:17:41;5.20;;;4.77;;
5127;SDS011;2582;48.770;9.190;2023-04-09T13:20:07;5.60;;;5.07;;
5127;SDS011;2582;48.770;9.190;2023-04-09T13:22:33;5.13;;;4.73;;
5127;SDS011;2582;48.770;9.190;2023-04-09T13:24:58;5.00;;;4.60;;
5127;SDS011;2582;48.770;9.190;2023-04-09T13:27:24;4.63;;;4.23;;
5127;SDS011;2582;48.770;9.190;2023-04-09T13:29:49;5.77;;;5.27;;
5127;SDS011;2582;48.770;9.190;2023-04-09T13:32:15;5.00;;;4.60;;
5127;SDS011;2582;48.770;9.190;2023-04-09T13:34:42;3.83;;;3.53;;
5127;SDS011;2582;48.770;9.190;2023-04-09T13:37:07;5.40;;;5.00;;
5127;SDS011;2582;48.770;9.190;2023-04-09T13:39:33;6.00;;;5.47;;
5127;SDS011;2582;48.770;9.190;2023-04-09T13:41:59;4.93;;;4.53;;
5127;SDS011;2582;48.770;9.190;2023-04-09T13:44:25;5.77;;;5.37;;
5127;SDS011;2582;48.770;9.190;2023-04-09T13:46:51;5.23;;;4.83;;
5127;SDS011;2582;48.770;9.190;2023-04-09T13:49:17;5.80;;;5.30;;
5127;SDS011;2582;48.770;9.190;2023-04-09T13:51:42;5.90;;;5.30;;
5127;SDS011;2582;48.770;9.190;2023-04-09T13:54:08;5.07;;;4.70;;
5127;SDS011;2582;48.770;9.190;2023-04-09T13:56:35;4.37;;;3.97;;
5127;SDS011;2582;48.770;9.190;2023-04-09T13:59:01;6.30;;;5.07;;
5127;SDS011;2582;48.770;9.190;2023-04-09T14:01:27;5.30;;;4.87;;
5127;SDS011;2582;48.770;9.190;2023-04-09T14:03:54;5.27;;;4.87;;
5127;SDS011;2582;48.770;9.190;2023-04-09T14:06:20;5.37;;;4.97;;
5127;SDS011;2582;48.770;9.190;2023-04-09T14:08:45;4.60;;;4.20;;
5127;SDS011;2582;48.770;9.190;2023-04-09T14:11:11;7.97;;;4.70;;
5127;SDS011;2582;48.770;9.190;2023-04-09T14:13:39;5.00;;;4.60;;
5127;SDS011;2582;48.770;9.190;2023-04-09T14:16:05;4.80;;;4.40;;
5127;SDS011;2582;48.770;9.190;2023-04-09T14:18:31;5.13;;;4.73;;
5127;SDS011;2582;48.770;9.190;2023-04-09T14:20:57;5.00;;;4.60;;
5127;SDS011;2582;48.770;9.190;2023-04-09T14:23:24;4.70;;;4.30;;
5127;SDS011;2582;48.770;9.190;2023-04-09T14:25:50;5.20;;;4.80;;
5127;SDS011;2582;48.770;9.190;2023-04-09T14:28:16;5.10;;;4.70;;
5127;SDS011;2582;48.770;9.190;2023-04-09T14:30:41;4.87;;;4.47;;
5127;SDS011;2582;48.770;9.190;2023-04-09T14:33:07;5.17;;;4.67;;
5127;SDS011;2582;48.770;9.190;2023-04-09T14:35:33;5.60;;;5.10;;
5127;SDS011;2582;48.770;9.190;2023-04-09T14:37:58;4.90;;;4.50;;
5127;SDS011;2582;48.770;9.190;2023-04-09T14:40:28;5.30;;;4.83;;
5127;SDS011;2582;48.770;9.190;2023-04-09T14:42:57;5.73;;;5.33;;
5127;SDS011;2582;48.770;9.190;2023-04-09T14:45:23;5.10;;;4.70;;
5127;SDS011;2582;48.770;9.190;2023-04-09T14:47:48;5.23;;;4.73;;
5127;SDS011;2582;48.770;9.190;2023-04-09T14:50:14;5.70;;;5.20;;
5127;SDS011;2582;48.770;9.190;2023-04-09T14:52:40;4.97;;;4.57;;
5127;SDS011;2582;48.770;9.190;2023-04-09T14:55:06;5.63;;;5.20;;
5127;SDS011;2582;48.770;9.190;2023-04-09T14:57:36;6.30;;;5.70;;
5127;SDS011;2582;48.770;9.190;2023-04-09T15:00:04;5.57;;;5.17;;
5127;SDS011;2582;48.770;9.190;2023-04-09T15:02:33;5.87;;;5.37;;
5127;SDS011;2582;48.770;9.190;2023-04-09T15:04:59;6.13;;;5.63;;
5127;SDS011;2582;48.770;9.190;2023-04-09T15:07:26;5.17;;;4.77;;
5127;SDS011;2582;48.770;9.190;2023-04-09T15:09:51;5.60;;;5.10;;
5127;SDS011;2582;48.770;9.190;2023-04-09T15:12:17;6.77;;;6.07;;
5127;SDS011;2582;48.770;9.190;2023-04-09T15:14:43;6.03;;;5.47;;
5127;SDS011;2582;48.770;9.190;2023-04-09T15:17:09;6.40;;;5.90;;
5127;SDS011;2582;48.770;9.190;2023-04-09T15:19:35;5.60;;;5.10;;
5127;SDS011;2582;48.770;9.190;2023-04-09T15:22:00;7.20;;;6.60;;